createdAt,value
2023-02-03T00:00:08.854Z,4.07
2023-02-03T00:02:40.028Z,4.53
2023-02-03T00:05:09.841Z,3.78
2023-02-03T00:07:39.612Z,3.45
2023-02-03T00:10:08.981Z,5.10
2023-02-03T00:12:37.529Z,5.13
2023-02-03T00:15:10.979Z,2.95
2023-02-03T00:17:39.255Z,3.60
2023-02-03T00:20:08.462Z,3.70
2023-02-03T00:22:36.748Z,3.40
2023-02-03T00:25:05.536Z,3.72
2023-02-03T00:27:33.918Z,3.88
2023-02-03T00:30:02.323Z,2.53
2023-02-03T00:32:32.389Z,2.25
2023-02-03T00:35:00.752Z,2.10
2023-02-03T00:37:29.170Z,3.05
2023-02-03T00:39:57.562Z,4.80
2023-02-03T00:42:25.777Z,2.38
2023-02-03T00:44:54.012Z,3.13
2023-02-03T00:47:23.704Z,1.90
2023-02-03T00:49:53.543Z,3.80
2023-02-03T00:52:21.801Z,3.25
2023-02-03T00:54:50.134Z,3.33
2023-02-03T00:57:18.430Z,1.92
2023-02-03T00:59:46.764Z,2.20
2023-02-03T01:02:16.853Z,5.25
2023-02-03T01:04:45.342Z,3.17
2023-02-03T01:07:15.065Z,3.60
2023-02-03T01:09:43.472Z,3.70
2023-02-03T01:12:12.621Z,2.55
2023-02-03T01:14:42.309Z,3.80
2023-02-03T01:17:10.608Z,2.30
2023-02-03T01:19:38.838Z,3.95
2023-02-03T01:22:07.091Z,4.95
2023-02-03T01:24:36.701Z,2.30
2023-02-03T01:27:06.752Z,2.22
2023-02-03T01:29:35.163Z,3.38
2023-02-03T01:32:03.529Z,2.50
2023-02-03T01:34:31.954Z,2.45
2023-02-03T01:37:00.725Z,4.53
2023-02-03T01:39:29.985Z,2.63
2023-02-03T01:41:59.623Z,3.53
2023-02-03T01:44:42.898Z,2.42
2023-02-03T01:47:25.621Z,2.60
2023-02-03T01:50:01.035Z,4.45
2023-02-03T01:52:30.171Z,2.33
2023-02-03T01:55:01.867Z,3.45
2023-02-03T01:57:35.804Z,2.20
2023-02-03T02:00:09.571Z,4.00
2023-02-03T02:02:47.084Z,2.03
2023-02-03T02:05:21.584Z,2.20
2023-02-03T02:07:50.994Z,1.63
2023-02-03T02:10:19.538Z,4.05
2023-02-03T02:12:50.747Z,2.15
2023-02-03T02:15:20.463Z,2.72
2023-02-03T02:18:03.688Z,3.38
2023-02-03T02:20:50.573Z,2.97
2023-02-03T02:23:47.568Z,3.15
2023-02-03T02:26:44.259Z,3.42
2023-02-03T02:29:44.347Z,2.17
2023-02-03T02:32:22.079Z,3.22
2023-02-03T02:35:00.464Z,2.33
2023-02-03T02:37:39.619Z,2.60
2023-02-03T02:40:16.986Z,4.90
2023-02-03T02:42:55.812Z,3.55
2023-02-03T02:45:28.265Z,3.83
2023-02-03T02:48:03.821Z,2.10
2023-02-03T02:50:38.620Z,2.13
2023-02-03T02:53:08.404Z,2.55
2023-02-03T02:55:41.940Z,3.33
2023-02-03T02:58:13.250Z,4.63
2023-02-03T03:00:42.782Z,3.22
2023-02-03T03:03:19.003Z,3.28
2023-02-03T03:05:52.428Z,2.80
2023-02-03T03:08:30.103Z,1.70
2023-02-03T03:10:59.611Z,2.95
2023-02-03T03:13:33.747Z,2.72
2023-02-03T03:16:05.262Z,5.50
2023-02-03T03:18:38.688Z,2.95
2023-02-03T03:21:09.038Z,2.67
2023-02-03T03:23:42.399Z,2.60
2023-02-03T03:26:14.873Z,3.08
2023-02-03T03:28:49.186Z,1.42
2023-02-03T03:31:19.120Z,2.75
2023-02-03T03:33:49.676Z,1.92
2023-02-03T03:36:25.768Z,3.42
2023-02-03T03:39:00.925Z,2.88
2023-02-03T03:41:39.247Z,2.38
2023-02-03T03:44:12.880Z,2.78
2023-02-03T03:46:46.349Z,3.03
2023-02-03T03:49:18.532Z,1.45
2023-02-03T03:51:51.034Z,2.40
2023-02-03T03:54:21.995Z,2.22
2023-02-03T03:56:55.908Z,3.90
2023-02-03T03:59:27.499Z,1.35
2023-02-03T04:04:27.139Z,3.03
2023-02-03T04:06:55.834Z,2.35
2023-02-03T04:09:24.421Z,3.75
2023-02-03T04:12:06.057Z,4.63
2023-02-03T04:17:03.803Z,2.15
2023-02-03T04:19:34.077Z,2.63
2023-02-03T04:22:02.415Z,1.85
2023-02-03T04:24:30.686Z,1.48
2023-02-03T04:26:58.902Z,1.92
2023-02-03T04:29:27.268Z,3.40
2023-02-03T04:31:55.597Z,2.88
2023-02-03T04:34:23.922Z,1.92
2023-02-03T04:36:53.559Z,3.28
2023-02-03T04:39:23.089Z,2.42
2023-02-03T04:41:51.360Z,3.25
2023-02-03T04:44:19.683Z,2.35
2023-02-03T04:46:47.898Z,2.97
2023-02-03T04:49:17.681Z,1.85
2023-02-03T04:51:46.142Z,3.22
2023-02-03T04:54:16.028Z,2.03
2023-02-03T04:56:44.403Z,2.88
2023-02-03T04:59:13.191Z,3.28
2023-02-03T05:01:41.513Z,2.28
2023-02-03T05:04:09.833Z,1.98
2023-02-03T05:06:38.330Z,3.25
2023-02-03T05:09:06.689Z,2.53
2023-02-03T05:11:38.367Z,2.95
2023-02-03T05:14:06.837Z,2.05
2023-02-03T05:16:35.174Z,2.78
2023-02-03T05:19:03.612Z,2.22
2023-02-03T05:21:31.844Z,1.25
2023-02-03T05:24:00.408Z,2.15
2023-02-03T05:26:28.602Z,2.33
2023-02-03T05:28:58.260Z,3.72
2023-02-03T05:31:26.560Z,1.77
2023-02-03T05:33:54.899Z,2.50
2023-02-03T05:36:23.164Z,2.83
2023-02-03T05:38:51.468Z,4.50
2023-02-03T05:41:37.426Z,3.10
2023-02-03T05:44:07.196Z,1.77
2023-02-03T05:46:35.494Z,2.00
2023-02-03T05:49:03.697Z,4.38
2023-02-03T05:51:31.945Z,0.82
2023-02-03T05:54:00.228Z,4.50
2023-02-03T05:56:28.550Z,2.55
2023-02-03T05:58:56.963Z,2.30
2023-02-03T06:01:26.621Z,1.20
2023-02-03T06:03:55.003Z,3.20
2023-02-03T06:06:23.381Z,2.30
2023-02-03T06:08:56.229Z,1.80
2023-02-03T06:11:25.457Z,3.78
2023-02-03T06:13:53.833Z,2.50
2023-02-03T06:16:24.858Z,2.40
2023-02-03T06:18:55.367Z,3.50
2023-02-03T06:21:23.765Z,5.43
2023-02-03T06:23:51.999Z,3.22
2023-02-03T06:26:20.316Z,4.18
2023-02-03T06:28:48.805Z,3.35
2023-02-03T06:31:17.254Z,1.92
2023-02-03T06:33:45.617Z,2.47
2023-02-03T06:36:15.336Z,2.70
2023-02-03T06:38:43.787Z,1.75
2023-02-03T06:41:12.029Z,2.33
2023-02-03T06:43:40.427Z,4.55
2023-02-03T06:46:08.700Z,4.18
2023-02-03T06:48:36.976Z,4.57
2023-02-03T06:51:05.693Z,2.60
2023-02-03T06:53:35.431Z,2.63
2023-02-03T06:56:03.645Z,4.10
2023-02-03T06:58:32.022Z,2.83
2023-02-03T07:01:00.338Z,4.85
2023-02-03T07:03:28.677Z,3.25
2023-02-03T07:05:56.962Z,1.65
2023-02-03T07:08:25.443Z,4.50
2023-02-03T07:10:56.794Z,2.72
2023-02-03T07:13:25.100Z,3.67
2023-02-03T07:15:53.605Z,2.72
2023-02-03T07:18:45.936Z,1.73
2023-02-03T07:21:13.369Z,1.70
2023-02-03T07:23:41.837Z,2.55
2023-02-03T07:26:12.049Z,1.80
2023-02-03T07:28:40.341Z,2.03
2023-02-03T07:31:10.497Z,2.33
2023-02-03T07:33:39.714Z,1.50
2023-02-03T07:36:09.073Z,2.00
2023-02-03T07:38:38.168Z,2.35
2023-02-03T07:41:06.631Z,2.75
2023-02-03T07:43:36.194Z,2.22
2023-02-03T07:46:04.913Z,2.97
2023-02-03T07:48:33.835Z,2.67
2023-02-03T07:51:02.232Z,1.67
2023-02-03T07:53:30.550Z,2.33
2023-02-03T07:56:01.472Z,2.75
2023-02-03T07:58:30.100Z,2.22
2023-02-03T08:01:00.079Z,1.85
2023-02-03T08:03:28.616Z,1.80
2023-02-03T08:05:56.859Z,3.17
2023-02-03T08:08:25.185Z,4.72
2023-02-03T08:10:55.896Z,2.03
2023-02-03T08:13:24.214Z,2.73
2023-02-03T08:15:52.662Z,4.07
2023-02-03T08:18:22.595Z,3.80
2023-02-03T08:20:51.100Z,3.22
2023-02-03T08:23:19.578Z,2.05
2023-02-03T08:25:52.557Z,2.88
2023-02-03T08:28:21.230Z,3.72
2023-02-03T08:30:49.696Z,2.95
2023-02-03T08:33:18.517Z,2.47
2023-02-03T08:35:50.355Z,3.97
2023-02-03T08:38:19.214Z,2.50
2023-02-03T08:40:47.486Z,2.13
2023-02-03T08:43:16.391Z,2.72
2023-02-03T08:45:44.941Z,2.72
2023-02-03T08:48:13.372Z,2.58
2023-02-03T08:50:44.533Z,3.20
2023-02-03T08:53:14.209Z,3.60
2023-02-03T08:55:42.434Z,1.90
2023-02-03T08:58:10.965Z,2.97
2023-02-03T09:00:39.345Z,1.38
2023-02-03T09:03:07.682Z,2.55
2023-02-03T09:05:36.327Z,1.55
2023-02-03T09:08:05.666Z,2.00
2023-02-03T09:10:35.498Z,2.47
2023-02-03T09:13:03.878Z,1.40
2023-02-03T09:15:32.223Z,3.80
2023-02-03T09:18:02.258Z,3.78
2023-02-03T09:20:32.172Z,2.50
2023-02-03T09:23:00.790Z,1.05
2023-02-03T09:25:29.140Z,2.63
2023-02-03T09:27:58.934Z,1.58
2023-02-03T09:30:27.701Z,3.67
2023-02-03T09:32:56.668Z,2.05
2023-02-03T09:35:26.920Z,5.30
2023-02-03T09:37:55.250Z,4.80
2023-02-03T09:40:29.591Z,3.78
2023-02-03T09:43:13.184Z,2.47
2023-02-03T09:45:41.546Z,2.28
2023-02-03T09:48:15.769Z,2.05
2023-02-03T09:50:47.095Z,1.23
2023-02-03T09:53:26.535Z,2.47
2023-02-03T09:55:56.105Z,1.77
2023-02-03T09:58:28.349Z,1.25
2023-02-03T10:01:00.382Z,2.45
2023-02-03T10:03:37.756Z,2.17
2023-02-03T10:06:13.902Z,1.80
2023-02-03T10:09:09.137Z,3.72
2023-02-03T10:11:53.089Z,2.67
2023-02-03T10:14:36.392Z,2.00
2023-02-03T10:17:19.793Z,2.30
2023-02-03T10:19:52.630Z,2.13
2023-02-03T10:22:25.875Z,3.13
2023-02-03T10:25:00.235Z,5.03
2023-02-03T10:27:31.087Z,4.47
2023-02-03T10:30:05.588Z,3.75
2023-02-03T10:32:36.021Z,1.98
2023-02-03T10:35:05.934Z,2.45
2023-02-03T10:37:43.370Z,3.15
2023-02-03T10:40:14.410Z,1.15
2023-02-03T10:43:02.023Z,1.92
2023-02-03T10:45:35.352Z,1.88
2023-02-03T10:48:05.409Z,2.08
2023-02-03T10:50:33.979Z,4.82
2023-02-03T10:53:24.242Z,1.42
2023-02-03T10:56:02.029Z,3.85
2023-02-03T10:58:33.443Z,1.80
2023-02-03T11:01:11.314Z,1.52
2023-02-03T11:03:42.417Z,2.83
2023-02-03T11:06:13.924Z,2.97
2023-02-03T11:11:15.801Z,1.52
2023-02-03T11:13:44.947Z,2.78
2023-02-03T11:16:20.793Z,2.60
2023-02-03T11:18:54.463Z,4.90
2023-02-03T11:21:25.148Z,1.90
2023-02-03T11:23:57.831Z,3.07
2023-02-03T11:26:29.123Z,2.33
2023-02-03T11:29:00.424Z,4.40
2023-02-03T11:31:33.003Z,1.83
2023-02-03T11:34:05.616Z,2.05
2023-02-03T11:36:36.037Z,2.28
2023-02-03T11:39:27.189Z,2.25
2023-02-03T11:41:56.206Z,3.00
2023-02-03T11:44:29.287Z,2.13
2023-02-03T11:47:03.602Z,3.28
2023-02-03T11:50:01.871Z,2.00
2023-02-03T11:52:52.897Z,2.15
2023-02-03T11:55:34.972Z,2.13
2023-02-03T11:58:24.310Z,1.73
2023-02-03T12:01:00.577Z,2.35
2023-02-03T12:03:58.020Z,1.40
2023-02-03T12:06:42.739Z,2.58
2023-02-03T12:09:24.067Z,3.50
2023-02-03T12:12:11.198Z,2.85
2023-02-03T12:14:53.839Z,4.82
2023-02-03T12:17:50.098Z,1.33
2023-02-03T12:20:40.567Z,2.03
2023-02-03T12:23:25.037Z,1.20
2023-02-03T12:26:04.982Z,1.75
2023-02-03T12:28:49.170Z,1.23
2023-02-03T12:31:27.546Z,3.20
2023-02-03T12:34:03.911Z,1.10
2023-02-03T12:36:41.667Z,2.53
2023-02-03T12:39:17.050Z,2.38
2023-02-03T12:41:50.788Z,2.47
2023-02-03T12:44:24.943Z,0.63
2023-02-03T12:47:02.005Z,1.95
2023-02-03T12:49:38.139Z,2.45
2023-02-03T12:52:19.464Z,2.22
2023-02-03T12:54:53.682Z,1.75
2023-02-03T12:57:26.255Z,1.13
2023-02-03T13:00:14.415Z,2.50
2023-02-03T13:02:51.469Z,2.30
2023-02-03T13:05:25.902Z,4.32
2023-02-03T13:08:02.947Z,3.72
2023-02-03T13:10:38.211Z,4.63
2023-02-03T13:13:09.257Z,2.58
2023-02-03T13:15:42.047Z,3.90
2023-02-03T13:18:20.276Z,7.97
2023-02-03T13:20:50.687Z,2.20
2023-02-03T13:23:24.183Z,2.00
2023-02-03T13:26:13.549Z,2.03
2023-02-03T13:29:03.854Z,2.92
2023-02-03T13:31:43.898Z,3.88
2023-02-03T13:34:24.852Z,3.42
2023-02-03T13:37:21.230Z,6.25
2023-02-03T13:40:06.835Z,1.98
2023-02-03T13:42:40.809Z,3.45
2023-02-03T13:45:15.800Z,2.05
2023-02-03T13:47:48.514Z,2.58
2023-02-03T13:50:23.690Z,3.97
2023-02-03T13:52:59.139Z,1.52
2023-02-03T13:55:41.093Z,2.97
2023-02-03T13:58:21.671Z,2.30
2023-02-03T14:01:06.239Z,6.03
2023-02-03T14:03:46.352Z,4.68
2023-02-03T14:07:00.175Z,3.53
2023-02-03T14:09:49.464Z,1.83
2023-02-03T14:12:22.725Z,4.65
2023-02-03T14:15:04.534Z,4.25
2023-02-03T14:18:07.240Z,1.73
2023-02-03T14:21:06.605Z,2.38
2023-02-03T14:24:00.751Z,2.95
2023-02-03T14:26:42.408Z,1.85
2023-02-03T14:29:26.389Z,4.18
2023-02-03T14:32:00.730Z,1.27
2023-02-03T14:34:38.026Z,2.03
2023-02-03T14:37:19.753Z,3.55
2023-02-03T14:42:47.273Z,0.75
2023-02-03T14:45:35.543Z,1.95
2023-02-03T14:48:20.714Z,1.08
2023-02-03T14:51:00.370Z,2.83
2023-02-03T14:53:54.902Z,2.50
2023-02-03T14:56:55.488Z,1.75
2023-02-03T14:59:27.089Z,0.98
2023-02-03T15:04:39.776Z,2.30
2023-02-03T15:07:08.156Z,4.80
2023-02-03T15:09:41.081Z,5.03
2023-02-03T15:12:19.472Z,1.77
2023-02-03T15:14:47.813Z,1.73
2023-02-03T15:17:23.895Z,1.65
2023-02-03T15:19:53.984Z,2.63
2023-02-03T15:22:24.595Z,2.08
2023-02-03T15:24:55.034Z,2.55
2023-02-03T15:27:25.029Z,4.30
2023-02-03T15:29:53.782Z,3.42
2023-02-03T15:32:29.221Z,1.75
2023-02-03T15:35:00.356Z,4.15
2023-02-03T15:37:32.738Z,2.25
2023-02-03T15:40:03.837Z,1.55
2023-02-03T15:42:38.045Z,5.57
2023-02-03T15:45:10.492Z,68.97
2023-02-03T15:47:42.818Z,88.45
2023-02-03T15:50:30.732Z,88.85
2023-02-03T15:53:04.840Z,109.93
2023-02-03T15:55:37.387Z,122.82
2023-02-03T15:58:06.528Z,57.50
2023-02-03T16:00:38.236Z,28.95
2023-02-03T16:03:16.232Z,29.55
2023-02-03T16:05:48.890Z,59.53
2023-02-03T16:08:37.516Z,72.55
2023-02-03T16:11:31.344Z,76.28
2023-02-03T16:14:01.568Z,30.15
2023-02-03T16:16:33.978Z,107.00
2023-02-03T16:19:05.213Z,52.58
2023-02-03T16:21:37.217Z,32.20
2023-02-03T16:24:07.198Z,27.67
2023-02-03T16:26:38.470Z,20.48
2023-02-03T16:29:32.658Z,13.20
2023-02-03T16:32:19.791Z,8.13
2023-02-03T16:35:05.341Z,5.30
2023-02-03T16:38:01.603Z,3.65
2023-02-03T16:40:47.361Z,3.05
2023-02-03T16:43:34.860Z,3.90
2023-02-03T16:46:20.863Z,2.10
2023-02-03T16:49:06.451Z,3.00
2023-02-03T16:51:40.146Z,2.05
2023-02-03T16:54:14.266Z,3.35
2023-02-03T16:56:42.721Z,1.67
2023-02-03T16:59:11.004Z,1.83
2023-02-03T17:01:39.684Z,2.35
2023-02-03T17:04:08.235Z,2.75
2023-02-03T17:06:38.864Z,3.00
2023-02-03T17:09:07.504Z,1.40
2023-02-03T17:11:37.339Z,1.35
2023-02-03T17:14:05.630Z,1.95
2023-02-03T17:16:33.903Z,6.05
2023-02-03T17:19:02.182Z,1.38
2023-02-03T17:21:31.566Z,1.88
2023-02-03T17:24:00.355Z,2.30
2023-02-03T17:26:28.762Z,2.10
2023-02-03T17:29:03.130Z,2.45
2023-02-03T17:31:32.697Z,3.17
2023-02-03T17:34:01.019Z,2.28
2023-02-03T17:36:29.449Z,1.38
2023-02-03T17:55:32.183Z,1.83
2023-02-03T17:58:00.569Z,3.03
2023-02-03T18:00:30.603Z,1.65
2023-02-03T18:02:59.181Z,1.80
2023-02-03T18:05:29.052Z,3.72
2023-02-03T18:08:00.831Z,0.85
2023-02-03T18:10:34.507Z,2.78
2023-02-03T18:13:04.673Z,1.65
2023-02-03T18:15:37.776Z,1.70
2023-02-03T18:18:06.150Z,1.58
2023-02-03T18:20:35.098Z,1.55
2023-02-03T18:23:03.396Z,1.77
2023-02-03T18:25:31.659Z,2.03
2023-02-03T18:28:00.026Z,1.52
2023-02-03T18:30:28.768Z,3.33
2023-02-03T18:33:01.696Z,1.77
2023-02-03T18:35:30.358Z,1.42
2023-02-03T18:37:58.660Z,3.25
2023-02-03T18:40:26.908Z,2.67
2023-02-03T18:42:56.389Z,1.83
2023-02-03T18:45:24.674Z,1.80
2023-02-03T18:47:52.900Z,2.25
2023-02-03T18:50:22.861Z,1.23
2023-02-03T18:52:54.558Z,1.10
2023-02-03T18:55:23.562Z,3.58
2023-02-03T18:57:51.907Z,1.85
2023-02-03T19:00:20.883Z,1.45
2023-02-03T19:02:50.349Z,2.58
2023-02-03T19:05:18.870Z,1.33
2023-02-03T19:07:48.570Z,2.00
2023-02-03T19:10:17.288Z,1.02
2023-02-03T19:12:45.575Z,2.55
2023-02-03T19:15:13.949Z,3.00
2023-02-03T19:17:42.264Z,2.53
2023-02-03T19:20:11.696Z,2.22
2023-02-03T19:22:40.253Z,1.05
2023-02-03T19:25:10.276Z,1.90
2023-02-03T19:27:38.874Z,2.20
2023-02-03T19:30:07.706Z,1.25
2023-02-03T19:32:35.967Z,1.55
2023-02-03T19:35:04.254Z,2.17
2023-02-03T19:37:32.630Z,1.50
2023-02-03T19:40:00.886Z,0.95
2023-02-03T19:42:30.557Z,1.75
2023-02-03T19:44:58.854Z,1.73
2023-02-03T19:47:27.090Z,2.17
2023-02-03T19:49:55.307Z,3.00
2023-02-03T19:52:23.756Z,1.85
2023-02-03T19:54:53.844Z,1.77
2023-02-03T19:57:22.681Z,1.38
2023-02-03T19:59:52.476Z,3.70
2023-02-03T20:02:21.157Z,2.22
2023-02-03T20:04:50.029Z,24.65
2023-02-03T20:07:18.882Z,55.15
2023-02-03T20:09:48.813Z,70.13
2023-02-03T20:12:17.098Z,79.35
2023-02-03T20:14:45.403Z,75.57
2023-02-03T20:17:14.991Z,39.67
2023-02-03T20:19:43.338Z,27.02
2023-02-03T20:22:11.692Z,64.18
2023-02-03T20:24:40.019Z,76.90
2023-02-03T20:27:08.293Z,64.18
2023-02-03T20:29:36.622Z,67.45
2023-02-03T20:32:07.185Z,73.43
2023-02-03T20:34:37.009Z,223.13
2023-02-03T20:37:06.723Z,149.40
2023-02-03T20:39:35.288Z,97.53
2023-02-03T20:42:03.549Z,54.42
2023-02-03T20:44:31.828Z,31.38
2023-02-03T20:47:00.032Z,19.95
2023-02-03T20:49:28.510Z,12.32
2023-02-03T20:51:58.113Z,8.40
2023-02-03T20:54:26.422Z,5.13
2023-02-03T20:56:54.681Z,3.97
2023-02-03T20:59:22.962Z,2.03
2023-02-03T21:01:51.510Z,2.08
2023-02-03T21:04:38.417Z,2.55
2023-02-03T21:07:14.829Z,1.48
2023-02-03T21:09:43.220Z,1.40
2023-02-03T21:12:13.310Z,1.58
2023-02-03T21:14:44.343Z,2.53
2023-02-03T21:17:20.356Z,1.95
2023-02-03T21:19:49.142Z,2.22
2023-02-03T21:22:22.276Z,1.73
2023-02-03T21:24:54.996Z,2.03
2023-02-03T21:27:28.764Z,1.95
2023-02-03T21:29:57.683Z,1.33
2023-02-03T21:32:29.456Z,1.10
2023-02-03T21:34:57.701Z,1.17
2023-02-03T21:37:41.427Z,2.13
2023-02-03T21:40:22.445Z,2.13
2023-02-03T21:42:50.755Z,1.38
2023-02-03T21:45:35.491Z,1.90
2023-02-03T21:48:29.702Z,1.15
2023-02-03T21:51:03.452Z,1.58
2023-02-03T21:53:36.064Z,2.60
2023-02-03T21:56:20.855Z,2.53
2023-02-03T21:58:51.530Z,0.70
2023-02-03T22:01:23.101Z,1.77
2023-02-03T22:03:52.681Z,0.88
2023-02-03T22:06:29.142Z,1.67
2023-02-03T22:08:59.720Z,1.27
2023-02-03T22:11:29.560Z,1.27
2023-02-03T22:13:58.014Z,1.35
2023-02-03T22:16:26.659Z,2.70
2023-02-03T22:18:55.012Z,1.23
2023-02-03T22:21:23.646Z,1.27
2023-02-03T22:23:51.894Z,0.98
2023-02-03T22:26:22.375Z,1.25
2023-02-03T22:28:50.700Z,1.63
2023-02-03T22:31:19.910Z,2.67
2023-02-03T22:33:48.718Z,1.02
2023-02-03T22:36:18.729Z,1.65
2023-02-03T22:38:47.050Z,0.70
2023-02-03T22:41:15.298Z,0.77
2023-02-03T22:43:44.924Z,1.02
2023-02-03T22:46:13.361Z,2.38
2023-02-03T22:48:41.639Z,1.17
2023-02-03T22:51:10.060Z,0.85
2023-02-03T22:53:39.518Z,1.33
2023-02-03T22:56:08.274Z,0.77
2023-02-03T22:58:36.544Z,1.52
2023-02-03T23:01:06.629Z,0.60
2023-02-03T23:03:35.067Z,1.02
2023-02-03T23:06:03.298Z,1.75
2023-02-03T23:08:31.777Z,2.22
2023-02-03T23:10:59.946Z,2.40
2023-02-03T23:13:28.792Z,1.48
2023-02-03T23:15:57.076Z,0.93
2023-02-03T23:18:27.087Z,1.10
2023-02-03T23:20:55.386Z,0.85
2023-02-03T23:23:23.695Z,0.98
2023-02-03T23:25:51.945Z,0.60
2023-02-03T23:28:20.415Z,1.20
2023-02-03T23:30:48.751Z,1.58
2023-02-03T23:33:17.011Z,1.25
2023-02-03T23:35:45.733Z,1.35
2023-02-03T23:38:14.778Z,1.13
2023-02-03T23:40:43.160Z,0.60
2023-02-03T23:43:11.480Z,1.27
2023-02-03T23:45:39.661Z,0.70
2023-02-03T23:48:08.218Z,2.50
2023-02-03T23:50:36.445Z,1.27
2023-02-03T23:53:06.185Z,1.50
2023-02-03T23:55:36.328Z,1.10
2023-02-03T23:58:05.794Z,0.70
